Tiempo atmosférico en la estación meteorológica de Pamplona Aeropuerto, Navarra (459 m.)



Fecha
DESCASC
Temp. máxima en grados centígrados (hora)
DESCASC
Temp. mínima en grados centígrados (hora)
DESCASC
Temp. media en grados centígrados
DESCASC
Racha de viento máxima en m/sg (hora)
DESCASC
Velocidad máxima media en intervalos de 10 minutos(hora)
DESCASC
Precipitaciones diarias en mm
DESCASC
Precipitaciones de 00:00 a 06:00 en mm
DESCASC
Precipitaciones de 06:00 a 12:00 en mm
DESCASC
Precipitaciones de 12:00 a 18:00 en mm
DESCASC
Precipitaciones de 18:00 a 24:00 en mm
DESCASC
15-11-2018 18.7 (15:00) 10.6 (23:59) 14.7 9.17 (05:00) 6.11 (05:00) 0 0 0 0 0
14-11-2018 -- (--) -- (--) -- -- (--) -- (--) -- -- -- 0 0
13-11-2018 16.7 (15:00) 8.7 (23:59) 12.7 5 (01:00) 3.33 (03:50) 2.8 2.8 0 0 0
12-11-2018 18.5 (14:30) 10.6 (23:50) 14.6 15.28 (02:50) 10 (03:10) 24.2 0 0 0 24.2
11-11-2018 17.6 (11:30) 9.5 (00:00) 13.6 15.28 (22:10) 9.17 (10:50) 0 0 0 0 0
10-11-2018 17 (14:10) 9.1 (00:00) 13.1 12.5 (09:20) 7.78 (14:50) 0.3 0.1 0 0 0.2
09-11-2018 14.6 (15:00) 7.3 (00:00) 11 10.28 (15:20) 6.11 (15:20) 5.9 5.9 0 0 0
08-11-2018 13.5 (14:20) 1.8 (00:00) 7.6 13.89 (23:50) 8.06 (16:10) 0.5 0 0 0 0.5
07-11-2018 16.3 (14:30) 4.7 (00:00) 10.5 13.89 (02:30) 10 (02:30) 0 0 0 0 0
06-11-2018 12.1 (15:30) 6.1 (00:00) 9.1 11.39 (08:20) 8.33 (21:20) 2.5 1.5 1 0 0
05-11-2018 13 (01:30) 6.1 (00:00) 9.5 15 (13:10) 11.39 (13:10) 2.5 0 1.2 1.3 0
04-11-2018 17.3 (15:50) -1.4 (-00:0) 7.9 12.5 (23:30) 8.06 (23:30) 0 0 0 0 0
03-11-2018 12 (13:30) 2.4 (00:00) 7.2 11.67 (13:00) 8.33 (13:00) 0 0 0 0 0
02-11-2018 14 (15:30) 7.1 (00:00) 10.5 11.39 (20:10) 7.5 (16:10) 9 8.5 0.5 0 0
01-11-2018 11.8 (15:30) 6.5 (00:00) 9.2 -- (--) -- (--) 2.5 1.7 0.8 0 0
31-10-2018 8.9 (02:00) 6.8 (00:00) 7.8 11.67 (00:10) 9.17 (00:10) 12 1.9 5.3 4.2 0.6
30-10-2018 10.2 (14:40) -0.7 (-00:0) 4.7 12.78 (18:00) 9.44 (18:30) 0 0 0 0 0
29-10-2018 5.5 (14:20) 1.2 (00:00) 3.4 12.78 (15:50) 8.89 (15:30) 9.8 1.3 4.1 4.4 0
28-10-2018 6.3 (14:00) 1.5 (00:00) 3.9 16.11 (09:20) 12.22 (09:20) 0.9 0 0 0 0.9
27-10-2018 12.3 (00:00) 3.7 (00:00) 8 13.33 (08:30) 8.89 (08:30) 0 0 0 0 0
26-10-2018 18.5 (15:10) 5.7 (00:00) 12.1 10.83 (16:50) 8.33 (17:00) 0 0 0 0 0
25-10-2018 23.7 (15:40) 4.9 (00:00) 14.3 7.22 (00:30) 4.44 (00:20) 0 0 0 0 0
24-10-2018 21 (15:30) 9.6 (00:00) 15.3 13.33 (12:20) 9.72 (17:10) 0 0 0 0 0
23-10-2018 18.4 (14:40) 9.6 (00:00) 14 12.78 (13:50) 9.72 (13:50) 0 0 0 0 0
22-10-2018 19.1 (14:20) 10.7 (00:00) 14.9 14.44 (18:30) 10.56 (18:30) 0 0 0 0 0
21-10-2018 24.5 (16:40) 9.5 (00:00) 17 8.89 (23:59) 6.11 (17:50) 0 0 0 0 0
20-10-2018 23.4 (17:30) 12.7 (00:00) 18 8.89 (18:30) 6.39 (18:30) 0 0 0 0 0
19-10-2018 23 (15:20) 13.4 (00:00) 18.2 10.83 (11:50) 7.5 (15:40) 0 0 0 0 0
18-10-2018 20.4 (13:40) 7.9 (00:00) 14.1 10.28 (17:20) 7.5 (17:20) 0 0 0 0 0

Gráficas

Temp. máximas Temp. mínimas Temp. medias Precipitaciones Rachas de viento máximas Velocidades máximas media en intervalos de 10 minutos

Datos horarios

Fecha y hora oficial Temperatura (ºC) Velocidad del viento (km/h) Dirección del viento Racha (km/h) Dirección de racha Precipitación (mm) Presión (hPa) Tendencia (hPa) Humedad (%)
2018-11-16 23:00:00 9.3 0 Calma 8 Noroeste 0 966.4 -0.1 94
2018-11-16 22:00:00 9.7 5 Sudeste 8 Este 0 966.4 0.2 92
2018-11-16 21:00:00 11.2 4 Norte 11 Sudeste 0 966.4 0.2 89
2018-11-16 20:00:00 11.6 6 Sudeste 9 Sudeste 0 966.5 0.2 87
2018-11-16 19:00:00 13 3 Sudoeste 13 Sur 0 966.2 -0.1 83
2018-11-16 18:00:00 13.7 4 Sur 13 Sudoeste 0 966.2 -0.5 81
2018-11-16 17:00:00 15.7 9 Sur 18 Sudoeste 0 966.3 -1.1 73
2018-11-16 16:00:00 16 8 Sur 13 Sudoeste 0 966.3 -1.5 73
2018-11-16 15:00:00 15.9 5 Oeste 11 Norte 0 966.7 -1.7 73
2018-11-16 14:00:00 15.6 7 Oeste 9 Oeste 0 967.4 -1.3 71
2018-11-16 13:00:00 14.7 5 Noroeste 11 Oeste 0 967.8 -0.5 75
2018-11-16 12:00:00 13.6 5 Noroeste 11 Noroeste 0 968.4 0.2 78
2018-11-16 11:00:00 12 3 Este 8 Sur 0 968.7 0.7 84
2018-11-16 10:00:00 9.9 2 Sur 8 Sudoeste 0 968.3 0.7 94
2018-11-16 09:00:00 8.4 6 Nordeste 9 Nordeste 0 968.2 0.7 96
2018-11-16 08:00:00 7.7 -- -- -- -- 0 968 0.4 97
2018-11-16 07:00:00 7.7 0 Calma 5 Este 0 967.6 -0.1 97
2018-11-16 06:00:00 7.9 3 Nordeste 5 Nordeste 0 967.5 -0.4 97
2018-11-16 05:00:00 8.4 0 Calma 5 Nordeste 0 967.6 -0.5 97
2018-11-16 04:00:00 9.1 3 Sudeste 5 Este 0 967.7 -0.6 96
2018-11-16 03:00:00 8.9 0 Calma 9 Este 0 967.9 -0.4 96
2018-11-16 02:00:00 9.1 0 Calma -- -- -- 968.1 -0.2 96
2018-11-16 01:00:00 9.8 0 Calma 8 Nordeste 0 968.3 -0.1 94
2018-11-16 00:00:00 10.7 3 Este 5 Nordeste 0 968.3 0.5 93
2018-11-15 23:00:00 11.4 3 Este 9 Este 0 968.3 1.1 91
2018-11-15 22:00:00 11.4 6 Este 9 Sudeste 0 968.4 1.6 92
2018-11-15 21:00:00 11.4 5 Nordeste 13 Sur 0 967.8 1.3 91
2018-11-15 20:00:00 12.6 8 Sur 13 Sur 0 967.2 0.8 85
2018-11-15 19:00:00 13.9 5 Sur 17 Sur 0 966.8 0.7 80
2018-11-15 18:00:00 14.8 5 Sur 17 Sur 0 966.5 0.3 75
2018-11-15 17:00:00 16.4 12 Sudoeste 18 Sudoeste 0 966.4 -0.1 71
2018-11-15 16:00:00 17.7 15 Sudoeste 30 Sur 0 966.1 -1 68
2018-11-15 15:00:00 18.6 19 Sur 28 Sur 0 966.2 -1.3 66
2018-11-15 14:00:00 17.1 15 Sur 26 Sur 0 966.5 -1.1 70
2018-11-15 13:00:00 16.3 12 Sudoeste 18 Sur 0 967.1 -0.6 77
2018-11-15 12:00:00 16.2 9 Sur 18 Sur 0 967.5 0.3 73
2018-11-15 11:00:00 14.4 8 Sur 15 Sudoeste 0 967.6 0.9 88
2018-11-15 10:00:00 13.1 0 Calma 8 Nordeste 0 967.7 1.5 81
2018-11-15 09:00:00 12.5 3 Norte 8 Norte 0 967.2 1.1 86
2018-11-15 08:00:00 12.4 9 Noroeste 18 Sudeste 0 966.7 0.5 86
2018-11-15 07:00:00 12 3 Este 18 Sur 0 966.2 -0.2 85
2018-11-15 06:00:00 13.5 15 Sur 28 Sur 0 966.1 -0.5 75
2018-11-15 05:00:00 13 22 Sudeste 33 Sudeste 0 966.2 -0.8 80
2018-11-15 04:00:00 12.5 3 Norte 28 Sudeste 0 966.4 -0.9 81
2018-11-15 03:00:00 13.4 13 Sudeste 22 Sur 0 966.6 -1.3 77
2018-11-15 02:00:00 13.3 13 Sudeste -- -- -- 967 -1.2 78
2018-11-15 01:00:00 13.6 15 Sudeste 24 Sudeste 0 967.3 -1.1 77
2018-11-15 00:00:00 13.9 17 Sudeste 22 Sudeste 0 967.9 -0.2 75
2018-11-14 23:00:00 13 4 Nordeste 15 Sudoeste 0 968.2 -0.2 79
2018-11-14 22:00:00 13.2 5 Sudoeste 18 Oeste 0 968.4 0 78
2018-11-14 21:00:00 13 8 Sudeste 18 Este 0 968.1 -0.1 79
2018-11-14 20:00:00 12.9 5 Sudoeste 15 Sur 0 968.4 0 80
2018-11-14 19:00:00 14.2 11 Sur 18 Sur 0 968.4 -0.2 76
2018-11-14 18:00:00 15.2 10 Sur 24 Sur 0 968.2 -0.5 71
2018-11-14 17:00:00 16.3 17 Sur 24 Sur 0 968.4 -0.7 69
2018-11-14 16:00:00 17.1 15 Sudeste 26 Sur 0 968.6 -1.2 65
2018-11-14 15:00:00 18 18 Sudeste 26 Sudeste 0 968.7 -2.1 61
2018-11-14 14:00:00 17.2 14 Sudeste 24 Sudeste 0 969.1 -2.3 66
2018-11-14 13:00:00 16.6 14 Sudeste 22 Sudeste 0 969.8 -1.9 72
2018-11-14 12:00:00 15.2 5 Nordeste 11 Norte 0 970.8 -1 78
2018-11-14 11:00:00 13.7 3 Norte 8 Noroeste 0 971.4 0 87
2018-11-14 10:00:00 12.2 2 Sudoeste 5 Oeste 0 971.7 -- 91
2018-11-14 09:00:00 11.1 0 Calma 8 Oeste 0 971.8 -- 96
2018-11-14 08:00:00 10.4 2 Norte -- -- -- 971.4 -0.2 95
2018-11-14 07:00:00 -- -- -- -- -- -- -- -- --
2018-11-14 06:00:00 -- -- -- -- -- -- -- -- --
2018-11-14 05:00:00 9.6 0 Calma 8 Sudoeste 0 971.6 -0.9 97
2018-11-14 04:00:00 9.4 3 Norte 8 Nordeste 0 972 -0.9 97
2018-11-14 03:00:00 8.8 5 Nordeste 8 Nordeste 0 972.3 -0.8 98
2018-11-14 02:00:00 8 4 Sudeste 8 Sur 0 972.5 -0.9 97
2018-11-14 01:00:00 8.1 6 Sur 13 Sudoeste 0 972.9 -0.5 97
2018-11-14 00:00:00 9 3 Nordeste 8 Nordeste 0 973.1 -0.2 97
2018-11-13 23:00:00 9.8 3 Noroeste 8 Oeste 0 973.4 0.2 96
2018-11-13 22:00:00 10.5 4 Oeste 11 Sudoeste 0 973.4 0.7 94
2018-11-13 21:00:00 11.1 3 Este 11 Sur 0 973.3 1.1 93
2018-11-13 20:00:00 11.2 5 Sudeste 13 Sur 0 973.2 1.1 94
2018-11-13 19:00:00 12 8 Sudeste 13 Sudeste 0 972.7 0.7 90
2018-11-13 18:00:00 13.2 6 Sur 8 Sur 0 972.2 0.4 83
2018-11-13 17:00:00 14.6 5 Sudoeste 8 Oeste 0 972.1 -0.1 78
2018-11-13 16:00:00 15.8 3 Norte 11 Oeste 0 972 -0.9 71
2018-11-13 15:00:00 16.6 5 Oeste 13 Oeste 0 971.8 -1.8 68
2018-11-13 14:00:00 15.4 5 Norte 9 Nordeste 0 972.2 -1.4 71
2018-11-13 13:00:00 14.1 6 Este 15 Nordeste 0 972.9 -0.5 76
2018-11-13 12:00:00 13.3 4 Este 11 Nordeste 0 973.6 0.8 78
2018-11-13 11:00:00 12.6 4 Norte 9 Nordeste 0 973.6 1.7 80
2018-11-13 10:00:00 11.5 0 Calma 5 Este 0 973.4 2 86
2018-11-13 09:00:00 10.7 3 Norte 11 Norte 0 972.8 1.9 92
2018-11-13 08:00:00 10 6 Noroeste 13 Norte 0 971.9 1.4 90
2018-11-13 07:00:00 10.8 8 Noroeste 15 Oeste 0 971.4 0.9 89
2018-11-13 06:00:00 10.7 8 Noroeste 11 Noroeste 0 970.9 0.5 92
2018-11-13 05:00:00 10.7 8 Noroeste 17 Noroeste 0 970.5 0.5 91
2018-11-13 04:00:00 10.7 12 Noroeste 17 Noroeste 0.1 970.5 0.8 92
2018-11-13 03:00:00 10.9 9 Noroeste 15 Noroeste 0 970.4 1.6 91
2018-11-13 02:00:00 10.7 8 Oeste 15 Oeste 0 970 2.4 94
2018-11-13 01:00:00 10.7 9 Noroeste 18 Noroeste 2.7 969.7 2.9 95
2018-11-13 00:00:00 10.7 9 Noroeste 30 Norte 16.2 968.8 2.9 97
2018-11-12 23:00:00 11.9 20 Noroeste 30 Norte 7.9 967.6 2.3 96
2018-11-12 22:00:00 14.7 11 Noroeste 17 Noroeste 0.1 966.8 2.1 82
2018-11-12 21:00:00 15.3 10 Sur 17 Sur 0 965.9 2.3 74
2018-11-12 20:00:00 15.6 11 Sur 17 Sur 0 965.3 2 71
2018-11-12 19:00:00 15.8 4 Sudoeste 11 Oeste 0 964.7 1.7 69
2018-11-12 18:00:00 16.3 9 Sur 22 Sur 0 963.6 0.5 65
2018-11-12 17:00:00 17.2 13 Sudeste 30 Sur 0 963.3 0.2 63
2018-11-12 16:00:00 17.9 21 Sur 32 Sudeste 0 963 -0.3 58
2018-11-12 15:00:00 17.9 24 Sur 35 Sudeste 0 963.1 -0.6 59
2018-11-12 14:00:00 17.6 16 Sur 30 Sur 0 963.1 -0.1 62
2018-11-12 13:00:00 17.4 17 Sur 37 Sur 0 963.3 0.7 61
2018-11-12 12:00:00 17 20 Sur 32 Sur 0 963.7 1.5 64
2018-11-12 11:00:00 16.4 20 Sur 37 Sur 0 963.2 2.1 66
2018-11-12 10:00:00 16.7 16 Sudeste 35 Sudeste 0 962.6 1.9 67
2018-11-12 09:00:00 15 12 Sudeste 26 Sudeste 0 962.2 2 72
2018-11-12 08:00:00 14.5 14 Sudeste 35 Sudeste 0 961.1 2 73
2018-11-12 07:00:00 14.5 23 Sur 37 Sur 0 960.7 2.5 71
2018-11-12 06:00:00 15.1 27 Sur 42 Sudeste 0 960.2 1.8 66
2018-11-12 05:00:00 14.3 20 Sudeste 42 Sur 0 959.1 1.3 72
2018-11-12 04:00:00 14.6 24 Sudeste 55 Sur 0 958.2 0.6 73
2018-11-12 03:00:00 16 32 Sur 55 Sur 0 958.4 1.3 64
2018-11-12 02:00:00 15.6 28 Sur 45 Sur 0 957.8 0.1 68
2018-11-12 01:00:00 15.4 32 Sudeste 50 Sudeste 0 957.6 -0.3 68
2018-11-12 00:00:00 15.8 28 Sudeste 50 Sur 0 957.1 -1 65
2018-11-11 23:00:00 16.1 22 Sur 55 Sur 0 957.7 -0.4 64
2018-11-11 22:00:00 16.9 27 Sur 50 Sur 0 957.9 0.1 59
2018-11-11 21:00:00 15.9 22 Sudeste 41 Sudeste 0 958.1 0.4 67
2018-11-11 20:00:00 15.9 23 Sudeste 37 Sur 0 958.1 0.4 67
2018-11-11 19:00:00 16.5 24 Sur 37 Sudeste 0 957.8 -0.1 65
2018-11-11 18:00:00 16.9 23 Sur 41 Sur 0 957.7 -0.9 65
2018-11-11 17:00:00 15.8 20 Sudeste 42 Sudeste 0 957.7 -1.1 72
2018-11-11 16:00:00 16.5 21 Sudeste 39 Sudeste 0 957.9 -1.7 66
2018-11-11 15:00:00 17.1 27 Sudeste 45 Sur 0 958.6 -1.6 64
2018-11-11 14:00:00 17.2 26 Sur 42 Sur 0 958.8 -1.4 63
2018-11-11 13:00:00 16.7 24 Sur 42 Sudeste 0 959.6 -0.6 65
2018-11-11 12:00:00 16.4 25 Sudeste 46 Sur 0 960.2 0.5 68
2018-11-11 11:00:00 16.1 27 Sur 52 Sur 0 960.2 1.4 67
2018-11-11 10:00:00 14.6 13 Sudeste 33 Sur 0 960.2 2 73
2018-11-11 09:00:00 13.6 19 Sudeste 35 Sudeste 0 959.7 1.2 75
2018-11-11 08:00:00 13.2 23 Sudeste 46 Sudeste 0 958.8 0.5 75
2018-11-11 07:00:00 13.2 18 Sudeste 30 Sudeste 0 958.2 -0.5 71
2018-11-11 06:00:00 11.2 14 Sur 22 Sur 0 958.5 -0.8 77
2018-11-11 05:00:00 10.9 7 Oeste 21 Sur 0 958.3 -1.3 78
2018-11-11 04:00:00 9.8 10 Sur 18 Noroeste 0 958.7 -0.4 89
2018-11-11 03:00:00 10.4 3 Norte 13 Sudeste 0 959.3 0.2 86
2018-11-11 02:00:00 10.9 4 Oeste 22 Sudeste 0 959.6 0.6 82
2018-11-11 01:00:00 10.6 9 Sudeste 18 Sur 0 959.1 0.5 83
2018-11-11 00:00:00 12.2 15 Sur 26 Oeste 0 959.1 1.1 77
2018-11-10 23:00:00 13.8 16 Sudoeste 30 Sudoeste 0 959 1.3 64
2018-11-10 22:00:00 13.5 14 Sur 28 Sudoeste 0 958.6 1.7 68
2018-11-10 21:00:00 13.5 14 Sur 24 Sur 0 958 1.5 73
2018-11-10 20:00:00 12.4 4 Norte 21 Sur 0 957.7 1.3 87
2018-11-10 19:00:00 12.4 10 Sur 33 Sur 0.2 956.9 0.9 87
2018-11-10 18:00:00 13.8 19 Sur 33 Sudoeste 0 956.5 0.2 78
2018-11-10 17:00:00 14 17 Sur 32 Sudeste 0 956.4 0 78
2018-11-10 16:00:00 14.8 15 Sur 30 Sudoeste 0 956 -1.2 75
2018-11-10 15:00:00 15.2 21 Sur 39 Sur 0 956.3 -1.3 72
2018-11-10 14:00:00 16.4 16 Sur 33 Sur 0 956.4 -1.2 66
2018-11-10 13:00:00 16.2 15 Sur 26 Sur 0 957.2 -0.4 63
2018-11-10 12:00:00 12.7 9 Norte 18 Nordeste 0 957.6 0 80
2018-11-10 11:00:00 12.8 9 Nordeste 32 Sur 0 957.6 0.4 74
2018-11-10 10:00:00 12.4 10 Sur 45 Sudeste 0 957.6 0.2 72
2018-11-10 09:00:00 11.7 18 Sudeste 32 Sudeste 0 957.6 -0.4 74
2018-11-10 08:00:00 10.2 12 Sur 26 Sudeste 0 957.2 -0.8 80
2018-11-10 07:00:00 10.3 19 Sudeste 30 Sudeste 0 957.4 -1.4 78
2018-11-10 06:00:00 10 6 Este 22 Sudeste 0 958 -1.4 78
2018-11-10 05:00:00 10 17 Sudeste 28 Sudeste 0 958 -1.9 77
2018-11-10 04:00:00 9.6 7 Sur 22 Sudeste 0 958.8 -1.5 77
2018-11-10 03:00:00 9.4 4 Sudeste 17 Sudeste 0 959.4 -1.4 78
2018-11-10 02:00:00 9.2 10 Sudeste 18 Sur 0.1 959.9 -1.5 79
2018-11-10 01:00:00 10.3 12 Sudeste 21 Este 0 960.3 -1.4 67
2018-11-10 00:00:00 10 12 Sudeste 22 Sur 0 960.8 -1.1 66
2018-11-09 23:00:00 10.1 8 Sudeste 22 Sur 0 961.4 -0.6 66
2018-11-09 22:00:00 10.1 16 Sur 28 Sur 0 961.7 -0.2 68
2018-11-09 21:00:00 10.8 20 Sur 30 Sudoeste 0 961.9 0.3 69
2018-11-09 20:00:00 11.6 17 Sudoeste 32 Sudoeste 0 962 0.6 62
2018-11-09 19:00:00 11.3 15 Sudoeste 33 Oeste 0 961.9 0.6 58
2018-11-09 18:00:00 10.5 12 Sudoeste 21 Sudoeste 0 961.6 -0.3 60
2018-11-09 17:00:00 12.2 11 Sudoeste 22 Oeste 0 961.4 -1 54
2018-11-09 16:00:00 13.9 15 Sudoeste 37 Sudoeste 0 961.3 -1.4 47
2018-11-09 15:00:00 14.1 8 Sur 17 Oeste 0 961.9 -1.6 58
2018-11-09 14:00:00 12.6 3 Oeste 9 Oeste 0 962.4 -1.6 60
2018-11-09 13:00:00 12 4 Noroeste 13 Noroeste 0 962.7 -0.8 69
2018-11-09 12:00:00 11.6 4 Oeste 18 Noroeste 0 963.5 0.1 74
2018-11-09 11:00:00 10 10 Noroeste 15 Noroeste 0 964 1.1 81
2018-11-09 10:00:00 9.2 5 Noroeste 13 Noroeste 0 963.5 1 86
2018-11-09 09:00:00 8.3 11 Noroeste 17 Noroeste 0 963.4 1.4 88
2018-11-09 08:00:00 7.7 5 Noroeste 13 Noroeste 0 962.9 1.2 93
2018-11-09 07:00:00 7.7 8 Noroeste 13 Noroeste 0 962.5 1.6 93
2018-11-09 06:00:00 7.5 4 Noroeste 13 Noroeste 0 962 1.5 94
2018-11-09 05:00:00 7.5 5 Noroeste 9 Oeste 0 961.7 1.9 96
2018-11-09 04:00:00 7.5 0 Calma -- -- -- 960.9 0.8 95
2018-11-09 03:00:00 7.5 6 Oeste 13 Sudeste 0 960.5 0.9 96
2018-11-09 02:00:00 7.6 10 Sudeste 13 Sudeste 1.2 959.8 1.1 95
2018-11-09 01:00:00 7.6 5 Este 22 Oeste 4.7 960.1 1.3 94
2018-11-09 00:00:00 8.7 15 Oeste 50 Oeste 0.4 959.6 0.5 85
2018-11-08 23:00:00 11.3 9 Sudeste 28 Este 0.1 958.7 -0.9 82
2018-11-08 22:00:00 12.1 26 Este 35 Este 0 958.8 -0.8 72
2018-11-08 21:00:00 11.9 21 Sudeste 37 Este 0 959.1 -0.5 71
2018-11-08 20:00:00 11.7 20 Este 37 Este 0 959.6 -0.5 70
2018-11-08 19:00:00 11.4 15 Este 32 Sudeste 0 959.6 -0.7 70
2018-11-08 18:00:00 11.8 23 Sudeste 35 Sudeste 0 959.6 -1.3 68
2018-11-08 17:00:00 12.9 21 Sudeste 39 Sudeste 0 960.1 -1.4 61
2018-11-08 16:00:00 13 21 Sudeste 45 Sudeste 0 960.3 -2.5 59
2018-11-08 15:00:00 13 26 Sudeste 41 Sudeste 0 960.9 -2.3 60
2018-11-08 14:00:00 13 20 Sudeste 41 Sudeste 0 961.5 -2.7 60
2018-11-08 13:00:00 12.3 16 Sudeste 35 Sudeste 0 962.8 -1.8 65
2018-11-08 12:00:00 11.4 25 Este 41 Sudeste 0 963.2 -1.6 70
2018-11-08 11:00:00 10.7 24 Sudeste 37 Sudeste 0 964.2 -0.5 74
2018-11-08 10:00:00 6.1 3 Sur 11 Oeste 0 964.6 0.2 96
2018-11-08 09:00:00 4.8 3 Este 8 Este 0 964.8 -0.1 96
2018-11-08 08:00:00 3.7 2 Norte 9 Noroeste 0 964.7 -0.3 97
2018-11-08 07:00:00 3 5 Noroeste 11 Noroeste 0 964.4 -1.2 98
2018-11-08 06:00:00 2.3 6 Oeste 8 Oeste 0 964.9 -0.8 97
2018-11-08 05:00:00 2.4 4 Sudeste 8 Sudeste 0 965 -0.5 97
2018-11-08 04:00:00 2.2 3 Oeste 8 Sudoeste 0 965.6 -0.3 97
2018-11-08 03:00:00 2.7 7 Oeste 11 Oeste 0 965.7 -0.2 97
2018-11-08 02:00:00 3.5 3 Nordeste 8 Sur 0 965.5 -0.6 96
2018-11-08 01:00:00 4.4 3 Este 9 Este 0 965.9 0.3 94
2018-11-08 00:00:00 4.9 4 Este 11 Sudeste 0 965.9 0.8 95
2018-11-07 23:00:00 5.5 4 Sur 9 Sudeste 0 966.1 1.5 92
2018-11-07 22:00:00 6.6 5 Sudeste 9 Sudeste 0 965.6 1.7 92
2018-11-07 21:00:00 6.9 5 Sudeste 8 Sudeste 0 965.1 2.5 89
2018-11-07 20:00:00 8.3 5 Noroeste 11 Noroeste 0 964.6 3.3 84
2018-11-07 19:00:00 9.6 12 Noroeste 28 Norte 0 963.9 3.3 79
2018-11-07 18:00:00 11.2 16 Noroeste 24 Noroeste 0 962.6 2.2 73
2018-11-07 17:00:00 13.8 11 Sudoeste 30 Sudoeste 0 961.3 1.3 56
2018-11-07 16:00:00 15.8 19 Sur 32 Sudoeste 0 960.6 0.9 51
2018-11-07 15:00:00 15.6 17 Sur 28 Sudoeste 0 960.4 0.6 54
2018-11-07 14:00:00 14.5 14 Sudoeste 37 Sur 0 960 1 64
2018-11-07 13:00:00 14.1 18 Sur 26 Sur 0 959.7 1.8 66
2018-11-07 12:00:00 12.8 18 Sudoeste 30 Sudoeste 0 959.8 2.5 71
2018-11-07 11:00:00 12 9 Sur 32 Sudeste 0 959 2.9 72
2018-11-07 10:00:00 11.1 22 Sudeste 37 Sudeste 0 957.9 2.3 76
2018-11-07 09:00:00 11.4 19 Sur 41 Sur 0 957.3 1.8 68
2018-11-07 08:00:00 10.8 24 Sur 42 Sur 0 956.1 0.4 71
2018-11-07 07:00:00 11 19 Sudeste 45 Sur 0 955.6 -0.2 68
2018-11-07 06:00:00 10.7 17 Sudeste 41 Este 0 955.5 -1 71
2018-11-07 05:00:00 10.7 28 Este 41 Este 0 955.7 -0.6 70
2018-11-07 04:00:00 10.5 21 Este 41 Sudeste 0 955.8 -1.1 71
2018-11-07 03:00:00 10.2 27 Sudeste 50 Sudeste 0 956.5 -0.5 73
2018-11-07 02:00:00 10.1 29 Sudeste 45 Sudeste 0 956.3 -0.9 73
2018-11-07 01:00:00 10.1 27 Sudeste 37 Sudeste 0 956.9 -0.3 72
2018-11-07 00:00:00 10.1 23 Sudeste 35 Sudeste 0 957 0 72
2018-11-06 23:00:00 10.8 23 Sudeste 33 Sur 0 957.2 -0.2 67
2018-11-06 22:00:00 10.8 29 Sur 39 Sur 0 957.2 0.1 69
2018-11-06 21:00:00 10.7 21 Sur 33 Sur 0 957 -0.1 68
2018-11-06 20:00:00 9.9 15 Sudeste 32 Sudeste 0 957.4 0.6 74
2018-11-06 19:00:00 10 21 Sudeste 30 Sudeste 0 957.1 0.3 75
2018-11-06 18:00:00 10 14 Sudeste 26 Sudeste 0 957.1 0.4 76
2018-11-06 17:00:00 10.7 18 Sudeste 24 Sudeste 0 956.8 0.2 72
2018-11-06 16:00:00 11.9 13 Sur 26 Sur 0 956.8 0.2 60
2018-11-06 15:00:00 11.7 17 Sur 30 Sur 0 956.7 -0.3 67
2018-11-06 14:00:00 11.5 14 Sur 28 Sur 0 956.6 0 70
2018-11-06 13:00:00 11.6 14 Sur 30 Sur 0 956.6 0.3 71
2018-11-06 12:00:00 9.4 17 Sudoeste 26 Sudoeste 0 957 1.7 74
2018-11-06 11:00:00 8.7 10 Sur 24 Oeste 0 956.6 2.4 80
2018-11-06 10:00:00 7.4 13 Sudoeste 35 Oeste 0.4 956.3 2.9 83
2018-11-06 09:00:00 7 22 Oeste 41 Oeste 0 955.3 2.5 81
2018-11-06 08:00:00 6.6 25 Oeste 39 Oeste 0.4 954.2 2 86
2018-11-06 07:00:00 6.8 14 Sudoeste 30 Sudoeste 0.2 953.4 1.9 88
2018-11-06 06:00:00 6.7 11 Sudoeste 21 Sudoeste 0.8 952.8 1.4 92
2018-11-06 05:00:00 6.9 14 Sudoeste 28 Sudoeste 0.7 952.2 0.7 85
2018-11-06 04:00:00 7.2 15 Sur 26 Sudoeste 0 951.5 0.3 83
2018-11-06 03:00:00 7.3 13 Sur 26 Oeste 0 951.4 0.5 81
2018-11-06 02:00:00 7.9 17 Sudoeste 33 Sudoeste 0 951.5 1 80
2018-11-06 01:00:00 7.1 10 Sudoeste 15 Sudoeste 0 951.2 0.8 95
2018-11-06 00:00:00 6.2 6 Noroeste 11 Noroeste 0 950.9 0.9 94
2018-11-05 23:00:00 7 4 Este 11 Norte 0 950.5 1 96
2018-11-05 22:00:00 8 4 Sudoeste 5 Sudoeste 0 950.4 1.1 93
2018-11-05 21:00:00 9.1 3 Norte -- -- -- 950 0.9 89
2018-11-05 20:00:00 9.7 9 Sur 17 Sudoeste 0 949.5 0.7 85
2018-11-05 19:00:00 9.8 9 Sur 13 Sur 0 949.3 0.3 87
2018-11-05 18:00:00 10.1 5 Sudoeste 28 Sur 0 949.1 -0.2 84
2018-11-05 17:00:00 10 18 Sudeste 30 Sudeste 0.2 948.8 -0.6 85
2018-11-05 16:00:00 10 16 Sudeste 30 Este 0.1 949 0.1 85
2018-11-05 15:00:00 10.4 14 Sudeste 35 Este 0 949.3 -0.8 84
2018-11-05 14:00:00 10.6 27 Este 54 Este 0 949.4 -0.3 84
2018-11-05 13:00:00 10.1 32 Este 50 Sudeste 1 948.9 -0.4 87
2018-11-05 12:00:00 10 23 Sudeste 35 Sudeste 0.8 950.1 1.1 82
2018-11-05 11:00:00 10.7 12 Sudeste 35 Este 0.3 949.7 0.9 78
2018-11-05 10:00:00 11 25 Sudeste 45 Sudeste 0.1 949.3 0.5 74
2018-11-05 09:00:00 12.3 26 Sudeste 48 Sudeste 0 949 0.2 62
2018-11-05 08:00:00 12.5 28 Sudeste 45 Sudeste 0 948.8 -0.4 61
2018-11-05 07:00:00 12.4 25 Sudeste 46 Sudeste 0 948.8 -1 64
2018-11-05 06:00:00 12.3 25 Sudeste 42 Sudeste 0 948.8 -1.9 64
2018-11-05 05:00:00 12.1 32 Sudeste 45 Sudeste 0 949.2 -1.8 64
2018-11-05 04:00:00 12.5 29 Sudeste 46 Sudeste 0 949.8 -1.5 59
2018-11-05 03:00:00 12.3 27 Sudeste 52 Este 0 950.7 -1.5 58
2018-11-05 02:00:00 12.6 30 Este 52 Este 0 951 -2 54
2018-11-05 01:00:00 12.4 28 Sudeste 42 Sudeste 0 951.3 -2.1 55
2018-11-05 00:00:00 12.4 25 Este 45 Sudeste 0 952.2 -1.7 55
2018-11-04 23:00:00 12.5 24 Sudeste 35 Sudeste 0 953 -1 54
2018-11-04 22:00:00 11.1 12 Sur 18 Sur 0 953.4 -1.2 58
2018-11-04 21:00:00 9.7 9 Sudoeste 21 Sudeste 0 953.9 -0.7 60
2018-11-04 20:00:00 10.5 11 Sudeste 17 Sudeste 0 954 -1.1 55
2018-11-04 19:00:00 11.7 5 Oeste 17 Noroeste 0 954.6 -1 48
2018-11-04 18:00:00 12.6 8 Noroeste 17 Sur 0 954.6 -1.6 45
2018-11-04 17:00:00 14.8 10 Sur 18 Sur 0 955.1 -2.5 33
2018-11-04 16:00:00 15.7 4 Norte 17 Sudoeste 0 955.6 -3.4 42
2018-11-04 15:00:00 15 8 Sudeste 17 Sudeste 0 956.2 -3.9 47
2018-11-04 14:00:00 13.3 4 Sudeste 11 Sudeste 0 957.6 -3.7 54
2018-11-04 13:00:00 11.5 5 Oeste 13 Oeste 0 959 -3.1 60
2018-11-04 12:00:00 8.9 5 Noroeste 9 Norte 0 960.1 -2.4 70
2018-11-04 11:00:00 6.3 3 Norte 9 Oeste 0 961.3 -0.9 79
2018-11-04 10:00:00 3.9 0 Calma 8 Sudeste 0 962.1 -0.3 89
2018-11-04 09:00:00 1.3 0 Calma 5 Sudeste 0 962.5 -0.5 97
2018-11-04 08:00:00 -1.1 0 Calma 5 Noroeste 0 962.2 -1 97
2018-11-04 07:00:00 -0.5 0 Calma 5 Sur 0 962.4 -1.4 97
2018-11-04 06:00:00 -0.2 0 Calma 5 Sudoeste 0 963 -1.2 97
2018-11-04 05:00:00 -0.4 6 Sur 9 Sur 0 963.2 -1.4 96
2018-11-04 04:00:00 0 5 Este 8 Este 0 963.8 -1.8 96
2018-11-04 03:00:00 0.1 0 Calma -- -- 0 964.2 -1.9 95
2018-11-04 02:00:00 1.4 4 Sudeste -- -- 0 964.6 -2 95
2018-11-04 01:00:00 1.7 0 Calma 5 Noroeste 0 965.6 -1.1 94
2018-11-04 00:00:00 2.6 3 Este 9 Este 0 966.1 -0.6 94
2018-11-03 23:00:00 3.4 0 Calma 9 Sudeste 0 966.6 -0.1 91
2018-11-03 22:00:00 4.3 4 Este 8 Este 0 966.7 -0.3 88
2018-11-03 21:00:00 5.2 5 Este 8 Este 0 966.7 -0.5 84
2018-11-03 20:00:00 5.9 4 Sur 9 Sur 0 966.7 -0.3 79
2018-11-03 19:00:00 7.4 5 Norte 15 Norte 0 967 -0.5 72
2018-11-03 18:00:00 8.8 9 Noroeste 15 Norte 0 967.2 -0.2 63
2018-11-03 17:00:00 10.3 11 Norte 30 Norte 0 967 -1 53
2018-11-03 16:00:00 11 22 Norte 33 Norte 0 967.5 -1 45
2018-11-03 15:00:00 11.5 24 Norte 35 Norte 0 967.4 -1.8 38
2018-11-03 14:00:00 11.2 26 Norte 39 Norte 0 968 -1.5 52
2018-11-03 13:00:00 11.3 30 Norte 42 Norte 0 968.5 -1.7 58
2018-11-03 12:00:00 11.6 25 Norte 33 Norte 0 969.2 -1.5 56
2018-11-03 11:00:00 10.3 25 Noroeste 35 Norte 0 969.5 -1.5 65
2018-11-03 10:00:00 8.3 17 Noroeste 28 Noroeste 0 970.2 -1.2 74
2018-11-03 09:00:00 7 14 Norte 26 Noroeste 0 970.7 -1.2 80
2018-11-03 08:00:00 6.2 19 Norte 30 Norte 0 971 -1 83
2018-11-03 07:00:00 6.1 15 Noroeste 24 Noroeste 0 971.4 -0.4 83
2018-11-03 06:00:00 5.5 11 Noroeste 15 Noroeste 0 971.9 -0.4 87
2018-11-03 05:00:00 6.2 9 Norte 24 Norte 0 972 -0.6 83
2018-11-03 04:00:00 6.6 17 Norte 26 Norte 0 971.8 -1.1 84
2018-11-03 03:00:00 6.9 15 Noroeste 26 Noroeste 0 972.3 -0.8 83
2018-11-03 02:00:00 6.7 14 Norte 24 Noroeste 0 972.6 -0.5 86
2018-11-03 01:00:00 7.2 14 Noroeste 21 Noroeste 0 972.9 -0.1 87
2018-11-03 00:00:00 7.2 12 Noroeste 22 Norte 0 973.1 0.1 86
2018-11-02 23:00:00 7.6 13 Noroeste 24 Norte 0 973.1 0.6 83
2018-11-02 22:00:00 8.2 11 Noroeste 18 Noroeste 0 973 0.9 82
2018-11-02 21:00:00 8 6 Noroeste 41 Noroeste 0 973 1.7 82
2018-11-02 20:00:00 8.7 17 Noroeste 30 Norte 0 972.5 1.9 80
2018-11-02 19:00:00 9 18 Norte 32 Norte 0 972.1 2.5 81
2018-11-02 18:00:00 10.3 17 Norte 35 Norte 0 971.3 2.1 76
2018-11-02 17:00:00 11.1 24 Norte 37 Norte 0 970.6 1.7 76
2018-11-02 16:00:00 12.8 23 Norte 35 Norte 0 969.6 0.6 68
2018-11-02 15:00:00 11.9 19 Norte 33 Norte 0 969.2 0.1 78
2018-11-02 14:00:00 11.5 18 Norte 30 Noroeste 0 968.9 0 87
2018-11-02 13:00:00 11.4 15 Noroeste 22 Noroeste 0 969 0.9 87
2018-11-02 12:00:00 10.3 9 Noroeste 13 Noroeste 0 969.1 1.6 92
2018-11-02 11:00:00 9.2 6 Noroeste 9 Noroeste 0 968.9 2.4 94
2018-11-02 10:00:00 8.7 4 Oeste 5 Oeste 0 968.1 2.7 94
2018-11-02 09:00:00 8.1 3 Nordeste 4 Nordeste 0 967.5 2.3 97
2018-11-02 08:00:00 7.8 4 Oeste 5 Oeste 0 966.5 1.9 98
2018-11-02 07:00:00 7.6 2 Nordeste 8 Sudeste 0.5 965.4 0.7 97
2018-11-02 06:00:00 7.7 2 Noroeste -- -- 1.2 965.2 0.7 97
2018-11-02 05:00:00 7.6 2 Oeste 9 Nordeste 0.8 964.6 -0.1 98
2018-11-02 04:00:00 7.7 5 Oeste 9 Sur 1.5 964.7 -0.2 97
2018-11-02 03:00:00 7.6 8 Este 11 Este 2.7 964.5 -0.5 97
2018-11-02 02:00:00 7.6 3 Nordeste -- -- 1.6 964.7 -0.3 97
2018-11-02 01:00:00 7.6 9 Sudeste 11 Sudeste 0.7 964.9 -0.2 96
2018-11-02 00:00:00 7.7 4 Norte 8 Noroeste 0 965 0.2 94
2018-11-01 23:00:00 7.6 0 Calma -- -- -- 965 0.4 94
2018-11-01 22:00:00 7.6 0 Calma 9 Sur 0 965.1 1.1 93
2018-11-01 21:00:00 8 3 Sur 5 Sur 0 964.8 0.8 92
2018-11-01 20:00:00 8.3 2 Este 8 Sudeste 0 964.6 1.2 88
2018-11-01 19:00:00 9.3 7 Sudeste 13 Este 0 964 0.8 86
2018-11-01 18:00:00 10 3 Este 9 Este 0 964 1.1 83
2018-11-01 17:00:00 10.9 5 Este 9 Este 0 963.4 0.6 77
2018-11-01 16:00:00 11.6 2 Nordeste 8 Nordeste 0 963.2 0.4 71
2018-11-01 15:00:00 11.5 4 Noroeste 9 Noroeste 0 962.9 0.3 75
2018-11-01 14:00:00 10.8 3 Sudeste 8 Este 0 962.8 0.4 79
2018-11-01 13:00:00 10.4 2 Noroeste 9 Sur 0 962.8 1.2 82
2018-11-01 12:00:00 9.5 4 Sudeste 9 Sudeste 0 962.6 1.9 88
2018-11-01 11:00:00 8.2 4 Sudeste 9 Sur 0 962.4 3 93
2018-11-01 10:00:00 7.5 5 Sudeste 8 Sudeste 0 961.6 3 96
2018-11-01 09:00:00 7.1 0 Calma 4 Sudoeste 0 960.7 -- 97
2018-11-01 08:00:00 6.7 3 Sudeste 8 Este 0 959.4 2.1 97
2018-11-01 07:00:00 6.6 2 Noroeste 5 Sudeste 0.8 958.6 1.9 97
2018-11-01 06:00:00 -- -- -- -- -- -- -- -- --
2018-11-01 05:00:00 6.6 0 Calma -- -- 0.3 957.3 1.4 96
2018-11-01 04:00:00 6.6 2 Sudeste -- -- 0 956.7 1 96
2018-11-01 03:00:00 6.6 4 Sur 5 Sur 0.1 956.3 1.1 96
2018-11-01 02:00:00 6.8 0 Calma 5 Oeste 0 955.9 1.1 95
2018-11-01 01:00:00 6.8 4 Norte 9 Oeste 0 955.7 1.7 95
2018-11-01 00:00:00 6.9 4 Oeste 11 Oeste 0 955.2 1.7 94
2018-10-31 23:00:00 7 8 Oeste 9 Oeste 0 954.8 2.1 95
2018-10-31 22:00:00 7.2 5 Noroeste 13 Noroeste 0 954 2.1 92
2018-10-31 21:00:00 7.5 8 Noroeste 21 Noroeste 0 953.5 2.4 93
2018-10-31 20:00:00 7.7 8 Oeste 18 Noroeste 0.4 952.7 2 94
2018-10-31 19:00:00 7.9 12 Noroeste 17 Noroeste 0.2 951.9 1.9 94
2018-10-31 18:00:00 8 9 Noroeste 13 Oeste 0.7 951.1 1.3 94
2018-10-31 17:00:00 8.3 5 Oeste 15 Norte 0.9 950.7 1.2 94
2018-10-31 16:00:00 8.5 9 Noroeste 13 Noroeste 0.7 950 0.6 94
2018-10-31 15:00:00 8.5 8 Noroeste 13 Noroeste 0.7 949.8 0.1 93
2018-10-31 14:00:00 8.7 6 Noroeste 13 Norte 0.9 949.5 -0.2 93
2018-10-31 13:00:00 8.6 6 Noroeste 15 Norte 0.3 949.4 -0.3 92
2018-10-31 12:00:00 8.5 9 Nordeste 15 Nordeste 1.1 949.7 -0.1 88
2018-10-31 11:00:00 8.2 4 Norte 9 Nordeste 0.4 949.7 -0.1 94
2018-10-31 10:00:00 7.7 0 Calma 8 Oeste 0.6 949.7 0 97
2018-10-31 09:00:00 7.1 5 Oeste 8 Oeste 0.8 949.8 0.1 97
2018-10-31 08:00:00 6.9 5 Oeste 9 Noroeste 1.1 949.8 -0.1 97
2018-10-31 07:00:00 6.9 7 Noroeste 8 Noroeste 1.3 949.7 -0.6 97
2018-10-31 06:00:00 6.9 7 Noroeste 8 Noroeste 0.3 949.7 -0.9 96
2018-10-31 05:00:00 7 4 Oeste -- -- 0.8 949.9 -1.1 94
2018-10-31 04:00:00 7.7 6 Noroeste 24 Este 0.8 950.3 -0.5 91
2018-10-31 03:00:00 8.7 16 Este 30 Sudeste 0 950.6 -0.5 83
2018-10-31 02:00:00 8.8 14 Sudeste 28 Sudeste 0 951 -0.1 78
2018-10-31 01:00:00 8.5 24 Sudeste 42 Sudeste 0 950.8 -0.3 76
2018-10-31 00:00:00 8.6 30 Sudeste 41 Sur 0 951.1 0.1 72
2018-10-30 23:00:00 8.8 28 Sudeste 41 Sudeste 0 951.1 0.1 66
2018-10-30 22:00:00 8.7 24 Sudeste 42 Este 0 951.1 0.2 65
2018-10-30 21:00:00 8.3 23 Sudeste 41 Sudeste 0 951 0.5 68
2018-10-30 20:00:00 8.5 21 Sudeste 39 Este 0 951 1 67
2018-10-30 19:00:00 8.7 21 Sudeste 46 Este 0 950.9 0.9 68
2018-10-30 18:00:00 8.9 30 Sudeste 46 Sudeste 0 950.5 0.7 65
2018-10-30 17:00:00 8.9 31 Sudeste 42 Este 0 950 -0.1 64
2018-10-30 16:00:00 9.3 26 Sudeste 39 Sudeste 0 950 -0.5 63
2018-10-30 15:00:00 9.5 19 Sudeste 37 Sudeste 0 949.8 -0.7 62
2018-10-30 14:00:00 10.1 27 Sudeste 45 Sur 0 950.1 -0.4 60
2018-10-30 13:00:00 9.3 19 Sudeste 41 Sudeste 0 950.5 0.3 64
2018-10-30 12:00:00 8 24 Sudeste 37 Sudeste 0 950.5 0.8 67
2018-10-30 11:00:00 7.2 22 Sudeste 37 Este 0 950.5 1.4 70
2018-10-30 10:00:00 3.6 5 Oeste 13 Oeste 0 950.2 1.4 92
2018-10-30 09:00:00 1.7 8 Oeste 13 Oeste 0 949.7 1 96
2018-10-30 08:00:00 0.6 4 Norte -- -- -- 949.1 0.5 97
2018-10-30 07:00:00 0.1 3 Nordeste 9 Noroeste 0 948.8 0 97
2018-10-30 06:00:00 -0.2 5 Noroeste 11 Oeste 0 948.7 -0.1 97
2018-10-30 05:00:00 -0.6 10 Oeste 11 Oeste 0 948.6 0 96
2018-10-30 04:00:00 -0.2 2 Sur 8 Sudeste 0 948.8 -0.2 95
2018-10-30 03:00:00 0.5 0 Calma 11 Sur 0 948.8 0.1 95
2018-10-30 02:00:00 1.6 5 Este 13 Sudeste 0 948.6 -0.1 92
2018-10-30 01:00:00 1.9 8 Sudeste -- -- -- 949 -0.1 93
2018-10-30 00:00:00 2 7 Sur 11 Norte 0 948.7 0 91
2018-10-29 23:00:00 3.4 3 Nordeste 11 Norte 0 948.7 0.3 90
2018-10-29 22:00:00 3.7 10 Norte 15 Norte 0 949.1 1.2 88
2018-10-29 21:00:00 3.5 10 Oeste 17 Oeste 0 948.7 1.1 87
2018-10-29 20:00:00 2.6 8 Sudeste 9 Sudeste 0 948.4 1.3 90
2018-10-29 19:00:00 2.9 3 Oeste 32 Norte 0 947.9 0.8 87
2018-10-29 18:00:00 4.4 17 Norte 46 Noroeste 0.5 947.6 0.2 86
2018-10-29 17:00:00 4.8 23 Noroeste 39 Noroeste 0 947.1 0.1 82
2018-10-29 16:00:00 4.4 24 Noroeste 46 Noroeste 0.5 947.1 -0.2 86
2018-10-29 15:00:00 4 25 Noroeste 42 Noroeste 0.2 947.4 0.2 90
2018-10-29 14:00:00 4.3 21 Noroeste 32 Noroeste 0.9 947 -0.4 90
2018-10-29 13:00:00 3.5 22 Noroeste 37 Noroeste 2.3 947.3 0 92
2018-10-29 12:00:00 3.5 28 Norte 45 Noroeste 2.6 947.2 -0.2 91
2018-10-29 11:00:00 4 23 Noroeste 33 Noroeste 0.4 947.4 0.1 91
2018-10-29 10:00:00 3.5 20 Norte 35 Noroeste 0.6 947.3 -0.3 90
2018-10-29 09:00:00 2.8 9 Noroeste 15 Noroeste 0.2 947.4 -0.8 93
2018-10-29 08:00:00 1.6 9 Oeste 13 Noroeste 0.1 947.3 -0.8 96
2018-10-29 07:00:00 1.6 5 Noroeste 9 Noroeste 0.2 947.6 -0.7 96
2018-10-29 06:00:00 1.5 3 Nordeste 8 Nordeste 0.3 948.2 -0.5 95
2018-10-29 05:00:00 1.3 6 Norte 15 Noroeste 0.7 948.1 -0.8 95
2018-10-29 04:00:00 2.1 6 Norte 9 Norte 0.3 948.3 -1.3 94
2018-10-29 03:00:00 2.2 4 Norte -- -- 0 948.7 -1 94
2018-10-29 02:00:00 2.3 4 Norte 9 Este 0 948.9 -1.1 92
2018-10-29 01:00:00 2.2 6 Este 9 Este 0 949.6 -0.6 93
2018-10-29 00:00:00 2.1 6 Este 8 Este 0.1 949.7 -- 94
2018-10-28 23:00:00 2.4 4 Este 8 Este 0.2 950 -0.5 92
2018-10-28 22:00:00 2 3 Este 8 Sudeste 0.1 950.2 -0.1 94
2018-10-28 21:00:00 -- -- -- -- -- -- -- -- --
2018-10-28 20:00:00 2.6 11 Norte 18 Oeste 0 950.5 0.4 89
2018-10-28 19:00:00 2.9 15 Oeste 28 Noroeste 0 950.3 0.4 90
2018-10-28 18:00:00 4 10 Noroeste 17 Norte 0 950 0.1 78
2018-10-28 17:00:00 3.9 17 Norte 35 Norte 0 950.1 0.1 80
2018-10-28 16:00:00 4.3 22 Norte 37 Norte 0 949.9 -0.4 76
2018-10-28 15:00:00 5.6 21 Norte 41 Norte 0 949.9 -0.7 67
2018-10-28 14:00:00 6.1 18 Norte 42 Norte 0 950 -0.6 59
2018-10-28 13:00:00 5.7 31 Norte 48 Norte 0 950.3 -0.2 58
2018-10-28 12:00:00 5.5 27 Noroeste 52 Norte 0 950.6 0 62
2018-10-28 11:00:00 4.7 32 Norte 48 Nordeste 0 950.6 0.5 61
2018-10-28 10:00:00 4.1 32 Norte 58 Norte 0 950.5 0.9 63
2018-10-28 09:00:00 3.7 26 Norte 41 Norte 0 950.6 1.1 64
2018-10-28 08:00:00 3.5 22 Norte 35 Norte 0 950.1 0.9 66
2018-10-28 07:00:00 3.6 22 Norte 39 Norte 0 949.6 0.6 68
2018-10-28 06:00:00 4 25 Norte 39 Norte 0 949.5 0.2 73
2018-10-28 05:00:00 4.1 26 Norte 35 Noroeste 0 949.2 0.1 72
2018-10-28 04:00:00 4 19 Norte 32 Norte 0 949 -0.6 71
2018-10-28 03:00:00 4.2 21 Norte 37 Norte 0 949.3 -0.7 75
2018-10-28 02:00:00 4.9 19 Norte 28 Norte 0 949.1 -1 75
2018-10-28 01:00:00 3.5 15 Noroeste 24 Noroeste 0 950 -1.3 84
2018-10-28 00:00:00 3.9 17 Noroeste 30 Noroeste 0 950.1 -1.6 83
2018-10-27 23:00:00 4.4 18 Noroeste 30 Noroeste 0 950.7 -0.9 81
2018-10-27 22:00:00 4.4 12 Noroeste 30 Norte 0 951.3 -0.2 80
2018-10-27 21:00:00 5.1 22 Noroeste 41 Norte 0 951.7 -0.6 78
2018-10-27 20:00:00 6.2 19 Noroeste 32 Noroeste 0 951.6 -1.1 71
2018-10-27 19:00:00 6.2 19 Noroeste 32 Norte 0 951.5 -2.3 73
2018-10-27 18:00:00 6.9 30 Norte 45 Norte 0 952.3 -2.2 73
2018-10-27 17:00:00 8.6 25 Norte 42 Norte 0 952.7 -3.2 60
2018-10-27 16:00:00 9.5 27 Norte 45 Norte 0 953.8 -3 58
2018-10-27 15:00:00 9.7 27 Norte 42 Norte 0 954.5 -3.4 60
2018-10-27 14:00:00 8.7 18 Norte 45 Norte 0 955.9 -2.4 66
2018-10-27 13:00:00 9.3 18 Norte 32 Norte 0 956.8 -1.9 68
2018-10-27 12:00:00 8.2 23 Norte 39 Norte 0 957.9 -0.7 75
2018-10-27 11:00:00 8.3 12 Noroeste 30 Noroeste 0 958.3 0 75
2018-10-27 10:00:00 7.5 16 Noroeste 33 Norte 0 958.7 0.5 77
2018-10-27 09:00:00 7.5 21 Norte 48 Norte 0 958.6 0.6 77
2018-10-27 08:00:00 8 24 Norte 37 Norte 0 958.3 0.2 86
2018-10-27 07:00:00 8.9 20 Norte 32 Norte 0 958.2 -0.5 87
2018-10-27 06:00:00 9.5 15 Norte 24 Noroeste 0 958 -1.4 84
2018-10-27 05:00:00 10 13 Noroeste 22 Norte 0 958.1 -1.9 78
2018-10-27 04:00:00 10.2 17 Norte 24 Norte 0 958.7 -1.8 78
2018-10-27 03:00:00 10.4 13 Norte 22 Norte 0 959.4 -1.1 76
2018-10-27 02:00:00 10.8 17 Norte 30 Norte 0 960 -0.5 74
2018-10-27 01:00:00 11.3 21 Noroeste 32 Noroeste 0 960.5 0.2 77
2018-10-27 00:00:00 12.3 21 Norte 35 Norte 0 960.5 -0.1 78
2018-10-26 23:00:00 13.1 16 Norte 30 Norte 0 960.5 -0.4 81
2018-10-26 22:00:00 13.4 17 Norte 26 Norte 0 960.3 -0.5 78
2018-10-26 21:00:00 13.4 14 Norte 24 Norte 0 960.6 -0.2 78
2018-10-26 20:00:00 13.5 14 Norte 28 Norte 0 960.9 0.3 76
2018-10-26 19:00:00 13.8 20 Norte 30 Norte 0 960.8 0.6 74
2018-10-26 18:00:00 14.1 22 Norte 35 Norte 0 960.8 0.2 71
2018-10-26 17:00:00 14.2 30 Norte 39 Norte 0 960.6 -0.6 74
2018-10-26 16:00:00 17.6 18 Noroeste 26 Noroeste 0 960.2 -1.8 63
2018-10-26 15:00:00 17.8 10 Noroeste 15 Norte 0 960.6 -1.9 60
2018-10-26 14:00:00 16.6 5 Noroeste 11 Noroeste 0 961.2 -1.3 62
2018-10-26 13:00:00 15.1 5 Noroeste 11 Noroeste 0 962 -0.6 67
2018-10-26 12:00:00 13.4 5 Oeste 9 Oeste 0 962.5 -0.2 71
2018-10-26 11:00:00 9.8 3 Norte 9 Sudoeste 0 962.5 0.1 85
2018-10-26 10:00:00 7 0 Calma 5 Sudeste 0 962.6 0 95
2018-10-26 09:00:00 5.8 4 Sur -- -- 0 962.7 0.2 93
2018-10-26 08:00:00 6.2 5 Sudeste 8 Sudeste 0 962.4 -0.5 93
2018-10-26 07:00:00 6.5 4 Sudeste 5 Sudeste 0 962.6 -0.8 94
2018-10-26 06:00:00 6.5 3 Sudoeste 5 Este 0 962.5 -1.5 93
2018-10-26 05:00:00 6.8 -- -- -- -- 0 962.9 -1.4 94
2018-10-26 04:00:00 7.2 3 Este 8 Este 0 963.4 -0.9 92
2018-10-26 03:00:00 8 4 Sudeste 9 Este 0 964 -0.4 93
2018-10-26 02:00:00 8.7 5 Este 8 Este 0 964.3 -0.7 88
2018-10-26 01:00:00 9.1 4 Sur 8 Sur 0 964.3 -0.4 89
2018-10-26 00:00:00 10.5 4 Este 8 Este 0 964.4 -0.1 87
2018-10-25 23:00:00 11.3 3 Este -- -- 0 965 0.7 82
2018-10-25 22:00:00 13.9 5 Norte 8 Norte 0 964.7 0.7 79
2018-10-25 21:00:00 14.5 4 Oeste 9 Oeste 0 964.5 0.7 73
2018-10-25 20:00:00 15.7 7 Oeste 18 Norte 0 964.3 0.7 70
2018-10-25 19:00:00 18.4 14 Norte 22 Norte 0 964 0 60
2018-10-25 18:00:00 21.7 16 Noroeste 22 Noroeste 0 963.8 -0.8 47
2018-10-25 17:00:00 22.6 13 Noroeste 22 Noroeste 0 963.6 -1.8 43
2018-10-25 16:00:00 23.2 11 Noroeste 18 Noroeste 0 964 -2.3 40
2018-10-25 15:00:00 22.6 9 Noroeste 15 Norte 0 964.6 -2.3 39
2018-10-25 14:00:00 20.8 6 Noroeste 18 Sudoeste 0 965.4 -1.9 45
2018-10-25 13:00:00 18.4 5 Noroeste 11 Noroeste 0 966.3 -1.1 49
2018-10-25 12:00:00 15.6 3 Nordeste 8 Norte 0 966.9 -0.2 58
2018-10-25 11:00:00 13.2 0 Calma 5 Noroeste 0 967.3 0.4 67
2018-10-25 10:00:00 9.3 0 Calma 5 Sur 0 967.4 0.2 81
2018-10-25 09:00:00 5.2 0 Calma 8 Sudeste 0 967.1 -0.3 91
2018-10-25 08:00:00 5.3 4 Este 8 Este 0 966.9 -0.7 92
2018-10-25 07:00:00 5.8 4 Este 8 Este 0 967.2 -0.9 90
2018-10-25 06:00:00 6.5 5 Sudeste 9 Sudeste 0 967.4 -1.4 88
2018-10-25 05:00:00 6.7 8 Sudeste 9 Sudeste 0 967.6 -1.6 87
2018-10-25 04:00:00 7.2 8 Sudeste 9 Sudeste 0 968.1 -1.4 86
2018-10-25 03:00:00 8.6 0 Calma 9 Noroeste 0 968.8 -1.2 81
2018-10-25 02:00:00 11.2 9 Noroeste 22 Noroeste 0 969.2 -1 73
2018-10-25 01:00:00 11.4 13 Noroeste 26 Noroeste 0 969.5 -0.9 71
2018-10-25 00:00:00 11.8 16 Noroeste 26 Noroeste 0 970 -0.7 70
2018-10-24 23:00:00 11.8 18 Noroeste 30 Noroeste 0 970.2 -0.5 69
2018-10-24 22:00:00 12.2 19 Noroeste 37 Norte 0 970.4 -0.3 67
2018-10-24 21:00:00 12.7 23 Noroeste 35 Noroeste 0 970.7 -0.1 68
2018-10-24 20:00:00 13.5 23 Noroeste 37 Noroeste 0 970.7 0.1 66
2018-10-24 19:00:00 14.9 32 Noroeste 46 Norte 0 970.7 0 60
2018-10-24 18:00:00 16.8 30 Norte 45 Norte 0 970.8 -0.3 56
2018-10-24 17:00:00 19 32 Noroeste 46 Noroeste 0 970.6 -1.4 47
2018-10-24 16:00:00 20.5 27 Noroeste 41 Noroeste 0 970.7 -1.9 40
2018-10-24 15:00:00 20.7 26 Noroeste 46 Noroeste 0 971.1 -2.1 38
2018-10-24 14:00:00 19.2 30 Noroeste 45 Norte 0 972 -1.5 44
2018-10-24 13:00:00 17.3 32 Norte 48 Norte 0 972.6 -1.3 52
2018-10-24 12:00:00 17 29 Norte 39 Norte 0 973.2 -0.4 52
2018-10-24 11:00:00 14.5 24 Noroeste 35 Noroeste 0 973.5 0 62
2018-10-24 10:00:00 12.5 28 Norte 41 Norte 0 973.9 0.4 71
2018-10-24 09:00:00 10.6 21 Noroeste 32 Norte 0 973.6 0 78
2018-10-24 08:00:00 10 15 Noroeste 33 Norte 0 973.5 -0.5 78
2018-10-24 07:00:00 10.2 23 Noroeste 42 Norte 0 973.5 -1.1 80
2018-10-24 06:00:00 10.2 23 Noroeste 41 Noroeste 0 973.6 -1.2 81
2018-10-24 05:00:00 10.3 23 Norte 37 Norte 0 974 -1 82
2018-10-24 04:00:00 10.3 19 Noroeste 32 Norte 0 974.6 -0.5 83
2018-10-24 03:00:00 10.1 20 Noroeste 32 Norte 0 974.8 -0.7 84
2018-10-24 02:00:00 10.1 17 Noroeste 26 Norte 0 975 -0.4 83
2018-10-24 01:00:00 9.9 17 Norte 28 Norte 0 975.1 -0.2 82
2018-10-24 00:00:00 9.9 17 Noroeste 24 Norte 0 975.5 0.3 81
2018-10-23 23:00:00 10.2 14 Noroeste 32 Norte 0 975.4 0.8 79
2018-10-23 22:00:00 10.8 23 Norte 37 Norte 0 975.3 1.4 79
2018-10-23 21:00:00 11.2 21 Noroeste 35 Norte 0 975.2 1.2 77
2018-10-23 20:00:00 12.2 23 Norte 35 Norte 0 974.6 0.5 73
2018-10-23 19:00:00 13.9 25 Norte 41 Norte 0 973.9 0.1 64
2018-10-23 18:00:00 15.4 30 Norte 41 Norte 0 974 0 57
2018-10-23 17:00:00 16.7 32 Norte 45 Norte 0 974.1 -0.4 52
2018-10-23 16:00:00 17.6 32 Noroeste 42 Noroeste 0 973.8 -0.9 48
2018-10-23 15:00:00 18 29 Norte 42 Norte 0 974 -0.6 45
2018-10-23 14:00:00 17.7 33 Norte 46 Norte 0 974.5 -0.2 48
2018-10-23 13:00:00 17.6 31 Norte 45 Norte 0 974.7 -0.1 46
2018-10-23 12:00:00 16.7 27 Norte 41 Norte 0 974.6 0.3 50
2018-10-23 11:00:00 15 27 Noroeste 41 Noroeste 0 974.7 0.6 56
2018-10-23 10:00:00 13.8 26 Norte 39 Norte 0 974.8 0.9 58
2018-10-23 09:00:00 11.6 22 Norte 32 Norte 0 974.3 0.3 71
2018-10-23 08:00:00 11.1 21 Norte 33 Norte 0 974.1 0.3 79
2018-10-23 07:00:00 11.2 18 Noroeste 33 Norte 0 973.9 0.1 79
2018-10-23 06:00:00 11.1 24 Norte 33 Norte 0 974 0.1 79
2018-10-23 05:00:00 11.1 21 Noroeste 35 Norte 0 973.8 -0.3 78
2018-10-23 04:00:00 11.4 23 Norte 35 Norte 0 973.8 -0.7 75
2018-10-23 03:00:00 11.3 20 Norte 32 Norte 0 973.9 -0.6 74
2018-10-23 02:00:00 10.9 15 Noroeste 32 Norte 0 974.1 -0.3 77
2018-10-23 01:00:00 11.1 22 Norte 37 Norte 0 974.5 0.2 75
2018-10-23 00:00:00 11 24 Norte 39 Norte 0 974.5 0.5 76
2018-10-22 23:00:00 11.1 25 Norte 33 Norte 0 974.4 1.1 75
2018-10-22 22:00:00 10.8 23 Norte 37 Norte 0 974.3 1.8 74
2018-10-22 21:00:00 11.1 23 Norte 35 Norte 0 974 2.4 73
2018-10-22 20:00:00 11.8 26 Norte 48 Norte 0 973.3 2.1 68
2018-10-22 19:00:00 13.4 33 Norte 52 Norte 0 972.5 1.6 59
2018-10-22 18:00:00 15.8 33 Norte 50 Norte 0 971.6 0.6 42
2018-10-22 17:00:00 17.1 33 Norte 50 Norte 0 971.2 -0.1 41
2018-10-22 16:00:00 18.1 32 Noroeste 46 Norte 0 970.9 -0.8 47
2018-10-22 15:00:00 18.3 34 Norte 50 Norte 0 971 -0.4 46
2018-10-22 14:00:00 18.4 33 Norte 46 Norte 0 971.3 -0.2 48
2018-10-22 13:00:00 18.3 31 Norte 45 Norte 0 971.7 0.3 52
2018-10-22 12:00:00 17.1 34 Norte 46 Norte 0 971.4 0.6 56
2018-10-22 11:00:00 15.8 26 Norte 42 Norte 0 971.5 1.1 64
2018-10-22 10:00:00 14.2 18 Norte 30 Norte 0 971.4 1.3 71
2018-10-22 09:00:00 12.9 22 Norte 32 Norte 0 970.8 1 76
2018-10-22 08:00:00 12.5 19 Norte 28 Norte 0 970.4 0.9 81
2018-10-22 07:00:00 12.7 19 Norte 35 Norte 0 970.1 0.8 80
2018-10-22 06:00:00 13.4 21 Norte 35 Norte 0 969.8 0.6 79
2018-10-22 05:00:00 13.2 23 Norte 32 Noroeste 0 969.5 0.4 82
2018-10-22 04:00:00 13.1 15 Noroeste 28 Norte 0 969.3 0.2 85
2018-10-22 03:00:00 13.8 22 Noroeste 35 Noroeste 0 969.2 0.3 83
2018-10-22 02:00:00 14.4 24 Norte 33 Norte 0 969.1 0.3 82
2018-10-22 01:00:00 14.7 22 Noroeste 35 Norte 0 969.1 0.6 81
2018-10-22 00:00:00 15.1 21 Norte 32 Norte 0 968.9 0.3 80
2018-10-21 23:00:00 14.7 9 Norte 26 Norte 0 968.8 0.6 81
2018-10-21 22:00:00 16.3 19 Norte 30 Norte 0 968.5 0.8 81
2018-10-21 21:00:00 17.3 15 Norte 24 Noroeste 0 968.6 1 75
2018-10-21 20:00:00 18.5 15 Norte 26 Norte 0 968.2 0.3 70
2018-10-21 19:00:00 20.7 20 Norte 30 Norte 0 967.7 -0.5 55
2018-10-21 18:00:00 22.5 21 Norte 28 Norte 0 967.6 -1.4 46
2018-10-21 17:00:00 23.9 14 Norte 24 Norte 0 967.9 -1.9 43
2018-10-21 16:00:00 23.9 9 Oeste 15 Oeste 0 968.2 -2.6 48
2018-10-21 15:00:00 22.1 5 Oeste 11 Oeste 0 969 -2.4 56
2018-10-21 14:00:00 19.5 2 Norte 9 Este 0 969.8 -2 65
2018-10-21 13:00:00 16.7 5 Este 9 Este 0 970.8 -1.1 74
2018-10-21 12:00:00 12.9 4 Noroeste 9 Noroeste 0 971.4 -0.2 91
2018-10-21 11:00:00 11.6 3 Noroeste 9 Noroeste 0 971.8 0.6 97
2018-10-21 10:00:00 11.3 0 Calma 8 Nordeste 0 971.9 0.7 98
2018-10-21 09:00:00 10.5 5 Nordeste 9 Nordeste 0 971.6 0.3 97
2018-10-21 08:00:00 10.2 3 Este 8 Nordeste 0 971.2 -0.1 96
2018-10-21 07:00:00 9.8 2 Nordeste 5 Nordeste 0 971.2 -0.2 95
2018-10-21 06:00:00 10.5 0 Calma 5 Nordeste 0 971.3 0 95
2018-10-21 05:00:00 10.3 0 Calma 5 Sudeste 0 971.3 -0.3 95
2018-10-21 04:00:00 10.8 2 Sudeste 5 Sudoeste 0 971.4 -0.2 95
2018-10-21 03:00:00 11.1 3 Este 9 Sur 0 971.3 -0.5 94
2018-10-21 02:00:00 11.7 4 Este 9 Oeste 0 971.6 0.2 94
2018-10-21 01:00:00 12.5 8 Oeste 9 Oeste 0 971.6 0.6 93
2018-10-21 00:00:00 12.7 4 Oeste 8 Oeste 0 971.8 0.9 90
2018-10-20 23:00:00 13.5 5 Noroeste 9 Oeste 0 971.4 0.8 88
2018-10-20 22:00:00 14.3 6 Oeste 11 Oeste 0 971 0.9 86
2018-10-20 21:00:00 15.5 8 Oeste 11 Oeste 0 970.9 1.6 83
2018-10-20 20:00:00 16.6 11 Noroeste 24 Noroeste 0 970.6 1.3 79
2018-10-20 19:00:00 18.6 19 Noroeste 32 Norte 0 970.1 0.4 71
2018-10-20 18:00:00 21.8 18 Norte 24 Noroeste 0 969.3 -0.8 59
2018-10-20 17:00:00 22.3 8 Norte 15 Norte 0 969.3 -1.6 53
2018-10-20 16:00:00 22.5 7 Nordeste 18 Noroeste 0 969.7 -1.8 54
2018-10-20 15:00:00 21.8 11 Oeste 18 Noroeste 0 970.1 -1.4 59
2018-10-20 14:00:00 20.4 8 Noroeste 21 Noroeste 0 970.9 -0.5 63
2018-10-20 13:00:00 19.2 9 Norte 17 Norte 0 971.5 0.8 65
2018-10-20 12:00:00 16.9 4 Noroeste 11 Norte 0 971.5 1.5 73
2018-10-20 11:00:00 15 2 Oeste 5 Oeste 0 971.4 1.9 80
2018-10-20 10:00:00 13.8 4 Noroeste 5 Noroeste 0 970.7 1.5 86
2018-10-20 09:00:00 13 2 Sur -- -- 0 970 1.3 88
2018-10-20 08:00:00 13.2 2 Sudeste 5 Oeste 0 969.5 1.3 86
2018-10-20 07:00:00 13.3 4 Oeste 13 Oeste 0 969.2 0.7 86
2018-10-20 06:00:00 13.3 7 Nordeste 9 Nordeste 0 968.7 0.5 85
2018-10-20 05:00:00 13.8 5 Sur 8 Sur 0 968.2 0.4 84
2018-10-20 04:00:00 13.9 3 Nordeste 9 Oeste 0 968.5 0.7 82
2018-10-20 03:00:00 13.7 7 Oeste 17 Noroeste 0 968.2 0.4 83
2018-10-20 02:00:00 14.1 12 Noroeste 24 Noroeste 0 967.8 0.6 81
2018-10-20 01:00:00 15.2 15 Noroeste 28 Noroeste 0 967.8 0.9 79
2018-10-20 00:00:00 15.5 18 Noroeste 28 Norte 0 967.8 1.2 80
2018-10-19 23:00:00 15.7 18 Noroeste 26 Norte 0 967.2 1.1 81
2018-10-19 22:00:00 15.4 14 Noroeste 26 Noroeste 0 966.9 1.9 83
2018-10-19 21:00:00 16.2 20 Noroeste 28 Norte 0 966.6 2.1 81
2018-10-19 20:00:00 16.9 16 Noroeste 30 Noroeste 0 966.1 1.8 78
2018-10-19 19:00:00 17.8 22 Norte 37 Noroeste 0 965 0.9 74
2018-10-19 18:00:00 19.5 23 Noroeste 35 Noroeste 0 964.5 0.3 67
2018-10-19 17:00:00 20.1 24 Noroeste 37 Noroeste 0 964.3 -0.2 65
2018-10-19 16:00:00 22 23 Noroeste 35 Norte 0 964.1 -1 59
2018-10-19 15:00:00 21.5 23 Noroeste 33 Noroeste 0 964.2 -0.6 60
2018-10-19 14:00:00 21.5 18 Noroeste 26 Noroeste 0 964.5 0.2 59
2018-10-19 13:00:00 19.5 14 Noroeste 30 Norte 0 965.1 1.3 66
2018-10-19 12:00:00 18.9 17 Norte 39 Nordeste 0 964.8 1.6 66
2018-10-19 11:00:00 17.7 18 Noroeste 28 Noroeste 0 964.3 1.5 75
2018-10-19 10:00:00 17.1 16 Noroeste 24 Norte 0 963.8 0.8 76
2018-10-19 09:00:00 15.9 14 Norte 21 Noroeste 0 963.2 0.2 80
2018-10-19 08:00:00 15.4 14 Noroeste 22 Norte 0 962.8 -0.2 83
2018-10-19 07:00:00 14.8 13 Noroeste 22 Norte 0 963 0 84
2018-10-19 06:00:00 14 9 Norte 22 Norte 0 963 -0.1 87
2018-10-19 05:00:00 14.3 13 Norte 18 Norte 0 963 0.2 87
2018-10-19 04:00:00 14.5 12 Noroeste 21 Norte 0 963 0 86
2018-10-19 03:00:00 15.1 14 Norte 22 Norte 0 963.1 0.2 83
2018-10-19 02:00:00 16 10 Noroeste 22 Noroeste 0 962.8 0.1 80
2018-10-19 01:00:00 15.8 14 Norte 24 Norte 0 963 0.6 82
2018-10-19 00:00:00 15.7 14 Noroeste 24 Noroeste 0 962.9 0.5 82
2018-10-18 23:00:00 15.8 14 Noroeste 22 Noroeste 0 962.7 0.8 81
2018-10-18 22:00:00 15.8 16 Noroeste 22 Noroeste 0 962.4 1.1 79
2018-10-18 21:00:00 16.1 15 Noroeste 24 Norte 0 962.4 1.5 78
2018-10-18 20:00:00 16.2 11 Norte 22 Norte 0 961.9 1.2 77
2018-10-18 19:00:00 16.7 11 Norte 32 Norte 0 961.3 1 73
2018-10-18 18:00:00 17.5 20 Norte 37 Norte 0 960.9 0.6 68
2018-10-18 17:00:00 18.3 22 Norte 35 Norte 0 960.7 0.3 64
2018-10-18 16:00:00 19.6 16 Norte 35 Norte 0 960.3 -0.5 60
2018-10-18 15:00:00 19.9 23 Noroeste 33 Norte 0 960.3 -0.9 60
2018-10-18 14:00:00 20 24 Noroeste 35 Norte 0 960.4 -1.2 61
2018-10-18 13:00:00 19 22 Noroeste 32 Norte 0 960.8 -0.9 66
2018-10-18 12:00:00 17.9 16 Norte 24 Norte 0 961.2 -0.2 71
2018-10-18 11:00:00 14.2 0 Calma 5 Sudeste 0 961.6 0.3 82
2018-10-18 10:00:00 10.7 5 Sur 8 Sur 0 961.7 0.2 92
2018-10-18 09:00:00 9 4 Sudeste 5 Sudeste 0 961.4 0.1 92
2018-10-18 08:00:00 8.2 5 Sur 8 Sudoeste 0 961.3 0 94
2018-10-18 07:00:00 8.1 5 Este 8 Sudeste 0 961.5 0 93
2018-10-18 06:00:00 8.9 5 Este 9 Este 0 961.3 -0.6 90
2018-10-18 05:00:00 9.5 5 Nordeste 9 Nordeste 0 961.3 -0.7 90
2018-10-18 04:00:00 10.5 5 Este 11 Nordeste 0 961.5 -0.3 87
2018-10-18 03:00:00 11.3 4 Nordeste 13 Nordeste 0 961.9 -0.2 86
2018-10-18 02:00:00 12.7 4 Este 9 Nordeste 0 962 0.1 83
2018-10-18 01:00:00 13 5 Nordeste 9 Nordeste 0 961.8 0.3 82
2018-10-18 00:00:00 13.1 5 Sudeste 8 Sudeste 0 962.1 0.8 80